sensor_id;sensor_type;location;lat;lon;timestamp;pressure;altitude;pressure_sealevel;temperature;humidity
44453;BME280;30155;52.164;21.236;2023-03-21T00:01:57;100359.40;;;8.45;76.82
44453;BME280;30155;52.164;21.236;2023-03-21T00:06:50;100355.64;;;8.40;76.92
44453;BME280;30155;52.164;21.236;2023-03-21T00:11:43;100352.98;;;8.36;77.16
44453;BME280;30155;52.164;21.236;2023-03-21T00:16:36;100350.41;;;8.37;77.28
44453;BME280;30155;52.164;21.236;2023-03-21T00:21:31;100348.72;;;8.40;77.28
44453;BME280;30155;52.164;21.236;2023-03-21T00:26:44;100340.98;;;8.41;77.32
44453;BME280;30155;52.164;21.236;2023-03-21T00:31:37;100337.64;;;8.38;77.30
44453;BME280;30155;52.164;21.236;2023-03-21T00:36:30;100333.45;;;8.35;77.34
44453;BME280;30155;52.164;21.236;2023-03-21T00:41:23;100335.46;;;8.33;77.39
44453;BME280;30155;52.164;21.236;2023-03-21T00:46:32;100336.79;;;8.30;77.52
44453;BME280;30155;52.164;21.236;2023-03-21T00:51:41;100339.36;;;8.30;77.63
44453;BME280;30155;52.164;21.236;2023-03-21T00:56:35;100334.88;;;8.29;77.60
44453;BME280;30155;52.164;21.236;2023-03-21T01:01:28;100338.86;;;8.30;77.65
44453;BME280;30155;52.164;21.236;2023-03-21T01:06:22;100340.57;;;8.29;77.82
44453;BME280;30155;52.164;21.236;2023-03-21T01:11:21;100335.85;;;8.26;77.88
44453;BME280;30155;52.164;21.236;2023-03-21T01:16:15;100335.38;;;8.28;77.96
44453;BME280;30155;52.164;21.236;2023-03-21T01:21:10;100336.08;;;8.29;78.06
44453;BME280;30155;52.164;21.236;2023-03-21T01:26:08;100334.36;;;8.30;77.96
44453;BME280;30155;52.164;21.236;2023-03-21T01:31:03;100332.98;;;8.30;78.10
44453;BME280;30155;52.164;21.236;2023-03-21T01:35:57;100331.77;;;8.30;78.29
44453;BME280;30155;52.164;21.236;2023-03-21T01:41:03;100326.54;;;8.27;78.25
44453;BME280;30155;52.164;21.236;2023-03-21T01:46:36;100323.24;;;8.26;78.25
44453;BME280;30155;52.164;21.236;2023-03-21T01:52:08;100326.48;;;8.24;78.40
44453;BME280;30155;52.164;21.236;2023-03-21T01:57:27;100320.05;;;8.21;78.43
44453;BME280;30155;52.164;21.236;2023-03-21T02:02:35;100314.65;;;8.20;78.56
44453;BME280;30155;52.164;21.236;2023-03-21T02:07:39;100312.20;;;8.17;78.52
44453;BME280;30155;52.164;21.236;2023-03-21T02:12:38;100306.61;;;8.14;78.64
44453;BME280;30155;52.164;21.236;2023-03-21T02:38:27;100306.82;;;7.99;78.66
44453;BME280;30155;52.164;21.236;2023-03-21T02:48:53;100312.50;;;7.90;78.96
44453;BME280;30155;52.164;21.236;2023-03-21T02:53:52;100310.57;;;7.89;79.06
44453;BME280;30155;52.164;21.236;2023-03-21T02:59:09;100309.20;;;7.89;79.00
44453;BME280;30155;52.164;21.236;2023-03-21T03:04:02;100312.52;;;7.91;79.07
44453;BME280;30155;52.164;21.236;2023-03-21T03:14:33;100319.14;;;7.95;79.18
44453;BME280;30155;52.164;21.236;2023-03-21T03:20:13;100317.95;;;7.95;79.33
44453;BME280;30155;52.164;21.236;2023-03-21T03:25:13;100327.64;;;7.96;79.37
44453;BME280;30155;52.164;21.236;2023-03-21T03:30:30;100330.06;;;7.96;79.51
44453;BME280;30155;52.164;21.236;2023-03-21T03:35:38;100330.23;;;7.96;79.43
44453;BME280;30155;52.164;21.236;2023-03-21T03:40:45;100328.14;;;7.95;79.43
44453;BME280;30155;52.164;21.236;2023-03-21T03:46:09;100331.75;;;7.95;79.50
44453;BME280;30155;52.164;21.236;2023-03-21T03:51:15;100327.44;;;7.95;79.55
44453;BME280;30155;52.164;21.236;2023-03-21T03:56:27;100329.51;;;7.95;79.65
44453;BME280;30155;52.164;21.236;2023-03-21T04:01:21;100328.77;;;7.93;79.50
44453;BME280;30155;52.164;21.236;2023-03-21T04:06:15;100330.27;;;7.91;79.62
44453;BME280;30155;52.164;21.236;2023-03-21T04:11:11;100334.29;;;7.92;79.67
44453;BME280;30155;52.164;21.236;2023-03-21T04:16:09;100335.70;;;7.94;79.62
44453;BME280;30155;52.164;21.236;2023-03-21T04:21:09;100335.16;;;7.93;79.73
44453;BME280;30155;52.164;21.236;2023-03-21T04:26:04;100329.67;;;7.94;79.66
44453;BME280;30155;52.164;21.236;2023-03-21T04:31:00;100332.42;;;7.94;79.62
44453;BME280;30155;52.164;21.236;2023-03-21T04:36:09;100336.05;;;7.93;79.69
44453;BME280;30155;52.164;21.236;2023-03-21T04:41:19;100339.64;;;7.92;79.65
44453;BME280;30155;52.164;21.236;2023-03-21T04:46:13;100342.01;;;7.91;79.75
44453;BME280;30155;52.164;21.236;2023-03-21T04:51:06;100339.92;;;7.89;79.87
44453;BME280;30155;52.164;21.236;2023-03-21T04:55:59;100337.80;;;7.88;79.87
44453;BME280;30155;52.164;21.236;2023-03-21T05:00:52;100344.00;;;7.87;79.95
44453;BME280;30155;52.164;21.236;2023-03-21T05:05:45;100346.73;;;7.86;79.97
44453;BME280;30155;52.164;21.236;2023-03-21T05:10:39;100346.05;;;7.86;79.89
44453;BME280;30155;52.164;21.236;2023-03-21T05:15:32;100347.98;;;7.88;79.95
44453;BME280;30155;52.164;21.236;2023-03-21T05:20:25;100347.38;;;7.91;79.91
44453;BME280;30155;52.164;21.236;2023-03-21T05:25:19;100348.27;;;7.92;79.84
44453;BME280;30155;52.164;21.236;2023-03-21T05:30:32;100347.13;;;7.96;79.77
44453;BME280;30155;52.164;21.236;2023-03-21T05:35:26;100345.17;;;8.02;79.75
44453;BME280;30155;52.164;21.236;2023-03-21T05:40:21;100354.29;;;8.08;79.78
44453;BME280;30155;52.164;21.236;2023-03-21T05:45:14;100358.67;;;8.12;79.95
44453;BME280;30155;52.164;21.236;2023-03-21T05:50:08;100364.98;;;8.16;79.89
44453;BME280;30155;52.164;21.236;2023-03-21T05:55:04;100366.94;;;8.19;79.87
44453;BME280;30155;52.164;21.236;2023-03-21T05:59:57;100375.38;;;8.18;79.71
44453;BME280;30155;52.164;21.236;2023-03-21T06:04:51;100376.54;;;8.15;79.60
44453;BME280;30155;52.164;21.236;2023-03-21T06:09:44;100380.66;;;8.14;79.71
44453;BME280;30155;52.164;21.236;2023-03-21T06:14:37;100387.55;;;8.13;79.59
44453;BME280;30155;52.164;21.236;2023-03-21T06:19:57;100387.95;;;8.16;79.77
44453;BME280;30155;52.164;21.236;2023-03-21T06:24:54;100397.34;;;8.19;79.82
44453;BME280;30155;52.164;21.236;2023-03-21T06:29:48;100397.32;;;8.18;79.71
44453;BME280;30155;52.164;21.236;2023-03-21T06:34:41;100405.60;;;8.18;79.68
44453;BME280;30155;52.164;21.236;2023-03-21T06:39:37;100408.09;;;8.21;79.66
44453;BME280;30155;52.164;21.236;2023-03-21T06:44:31;100404.35;;;8.24;79.51
44453;BME280;30155;52.164;21.236;2023-03-21T06:49:28;100408.03;;;8.26;79.39
44453;BME280;30155;52.164;21.236;2023-03-21T06:54:25;100412.33;;;8.33;79.22
44453;BME280;30155;52.164;21.236;2023-03-21T06:59:24;100413.50;;;8.47;79.21
44453;BME280;30155;52.164;21.236;2023-03-21T07:04:29;100417.11;;;8.54;79.11
44453;BME280;30155;52.164;21.236;2023-03-21T07:09:23;100417.63;;;8.63;78.67
44453;BME280;30155;52.164;21.236;2023-03-21T07:14:20;100423.02;;;8.73;78.31
44453;BME280;30155;52.164;21.236;2023-03-21T07:19:14;100424.41;;;8.74;78.10
44453;BME280;30155;52.164;21.236;2023-03-21T07:24:07;100427.36;;;8.75;78.07
44453;BME280;30155;52.164;21.236;2023-03-21T07:29:00;100426.52;;;8.75;77.94
44453;BME280;30155;52.164;21.236;2023-03-21T07:33:53;100429.17;;;8.78;78.22
44453;BME280;30155;52.164;21.236;2023-03-21T07:38:46;100430.27;;;8.82;77.90
44453;BME280;30155;52.164;21.236;2023-03-21T07:43:43;100433.35;;;8.81;77.91
44453;BME280;30155;52.164;21.236;2023-03-21T07:48:36;100432.41;;;8.76;77.98
44453;BME280;30155;52.164;21.236;2023-03-21T07:53:30;100434.50;;;8.87;77.68
44453;BME280;30155;52.164;21.236;2023-03-21T07:58:24;100431.31;;;9.10;77.58
44453;BME280;30155;52.164;21.236;2023-03-21T08:03:18;100428.46;;;9.35;77.30
44453;BME280;30155;52.164;21.236;2023-03-21T08:08:11;100429.59;;;9.49;76.76
44453;BME280;30155;52.164;21.236;2023-03-21T08:13:04;100432.45;;;9.55;76.56
44453;BME280;30155;52.164;21.236;2023-03-21T08:17:58;100436.75;;;9.76;76.63
44453;BME280;30155;52.164;21.236;2023-03-21T08:22:51;100437.91;;;9.95;76.26
44453;BME280;30155;52.164;21.236;2023-03-21T08:27:45;100436.50;;;10.16;76.17
44453;BME280;30155;52.164;21.236;2023-03-21T08:32:39;100437.42;;;10.32;75.61
44453;BME280;30155;52.164;21.236;2023-03-21T08:37:33;100443.95;;;10.28;75.30
44453;BME280;30155;52.164;21.236;2023-03-21T08:42:26;100449.32;;;10.28;74.99
44453;BME280;30155;52.164;21.236;2023-03-21T08:47:19;100449.60;;;10.25;74.63
44453;BME280;30155;52.164;21.236;2023-03-21T08:52:12;100452.10;;;10.17;74.82
44453;BME280;30155;52.164;21.236;2023-03-21T08:57:05;100456.14;;;10.21;74.59
44453;BME280;30155;52.164;21.236;2023-03-21T09:01:59;100455.23;;;10.71;73.81
44453;BME280;30155;52.164;21.236;2023-03-21T09:06:51;100450.16;;;12.13;72.02
44453;BME280;30155;52.164;21.236;2023-03-21T09:11:46;100456.05;;;12.69;70.66
44453;BME280;30155;52.164;21.236;2023-03-21T09:16:42;100460.20;;;12.32;70.29
44453;BME280;30155;52.164;21.236;2023-03-21T09:21:35;100465.04;;;12.26;70.33
44453;BME280;30155;52.164;21.236;2023-03-21T09:26:28;100466.42;;;11.99;69.91
44453;BME280;30155;52.164;21.236;2023-03-21T09:31:21;100475.45;;;11.60;70.12
44453;BME280;30155;52.164;21.236;2023-03-21T09:36:15;100486.80;;;11.29;70.47
44453;BME280;30155;52.164;21.236;2023-03-21T09:46:35;100488.67;;;11.10;70.38
44453;BME280;30155;52.164;21.236;2023-03-21T09:51:35;100488.23;;;11.02;70.50
44453;BME280;30155;52.164;21.236;2023-03-21T09:56:28;100490.96;;;10.83;70.50
44453;BME280;30155;52.164;21.236;2023-03-21T10:01:25;100488.02;;;10.70;70.87
44453;BME280;30155;52.164;21.236;2023-03-21T10:06:22;100487.89;;;10.59;70.82
44453;BME280;30155;52.164;21.236;2023-03-21T10:11:25;100488.89;;;10.57;70.46
44453;BME280;30155;52.164;21.236;2023-03-21T10:16:27;100488.31;;;10.52;70.37
44453;BME280;30155;52.164;21.236;2023-03-21T10:21:23;100489.61;;;10.46;70.45
44453;BME280;30155;52.164;21.236;2023-03-21T10:26:37;100492.36;;;10.45;70.30
44453;BME280;30155;52.164;21.236;2023-03-21T10:31:30;100494.65;;;10.47;70.46
44453;BME280;30155;52.164;21.236;2023-03-21T10:36:26;100495.99;;;10.44;70.42
44453;BME280;30155;52.164;21.236;2023-03-21T10:41:21;100497.84;;;10.29;70.27
44453;BME280;30155;52.164;21.236;2023-03-21T10:46:19;100499.86;;;10.26;70.53
44453;BME280;30155;52.164;21.236;2023-03-21T10:51:19;100500.73;;;10.37;70.45
44453;BME280;30155;52.164;21.236;2023-03-21T10:56:12;100500.97;;;10.53;70.49
44453;BME280;30155;52.164;21.236;2023-03-21T11:01:09;100497.70;;;10.54;70.44
44453;BME280;30155;52.164;21.236;2023-03-21T11:06:07;100502.67;;;10.39;70.42
44453;BME280;30155;52.164;21.236;2023-03-21T11:11:07;100510.42;;;10.14;70.40
44453;BME280;30155;52.164;21.236;2023-03-21T11:16:06;100519.20;;;9.99;70.98
44453;BME280;30155;52.164;21.236;2023-03-21T11:21:05;100517.25;;;9.97;71.53
44453;BME280;30155;52.164;21.236;2023-03-21T11:26:00;100517.92;;;9.96;71.74
44453;BME280;30155;52.164;21.236;2023-03-21T11:30:59;100513.98;;;9.99;71.91
44453;BME280;30155;52.164;21.236;2023-03-21T11:36:10;100508.11;;;10.10;71.95
44453;BME280;30155;52.164;21.236;2023-03-21T11:41:32;100507.25;;;10.57;71.78
44453;BME280;30155;52.164;21.236;2023-03-21T11:46:31;100498.41;;;11.46;70.90
44453;BME280;30155;52.164;21.236;2023-03-21T11:51:32;100490.59;;;12.29;70.07
44453;BME280;30155;52.164;21.236;2023-03-21T11:56:34;100493.96;;;13.17;68.93
44453;BME280;30155;52.164;21.236;2023-03-21T12:38:24;100475.96;;;12.51;66.51
44453;BME280;30155;52.164;21.236;2023-03-21T12:43:46;100471.44;;;12.22;66.82
44453;BME280;30155;52.164;21.236;2023-03-21T12:54:00;100463.89;;;12.36;67.31
44453;BME280;30155;52.164;21.236;2023-03-21T12:59:02;100460.30;;;12.51;66.67
44453;BME280;30155;52.164;21.236;2023-03-21T13:09:37;100463.30;;;12.24;66.59
44453;BME280;30155;52.164;21.236;2023-03-21T13:14:35;100458.63;;;12.02;66.53
44453;BME280;30155;52.164;21.236;2023-03-21T13:19:43;100455.35;;;11.85;66.93
44453;BME280;30155;52.164;21.236;2023-03-21T13:24:46;100451.98;;;11.76;67.14
44453;BME280;30155;52.164;21.236;2023-03-21T13:34:32;100455.37;;;11.88;67.45
44453;BME280;30155;52.164;21.236;2023-03-21T13:39:27;100449.75;;;11.99;67.19
44453;BME280;30155;52.164;21.236;2023-03-21T13:44:32;100452.11;;;12.13;66.53
44453;BME280;30155;52.164;21.236;2023-03-21T13:49:30;100449.49;;;12.12;66.39
44453;BME280;30155;52.164;21.236;2023-03-21T13:54:43;100447.25;;;11.91;66.17
44453;BME280;30155;52.164;21.236;2023-03-21T13:59:43;100454.36;;;11.70;65.98
44453;BME280;30155;52.164;21.236;2023-03-21T14:04:37;100457.10;;;11.65;66.25
44453;BME280;30155;52.164;21.236;2023-03-21T14:09:47;100455.66;;;11.79;66.06
44453;BME280;30155;52.164;21.236;2023-03-21T14:14:45;100462.41;;;11.78;65.44
44453;BME280;30155;52.164;21.236;2023-03-21T14:19:39;100461.59;;;11.83;65.29
44453;BME280;30155;52.164;21.236;2023-03-21T14:24:31;100467.60;;;11.75;64.84
44453;BME280;30155;52.164;21.236;2023-03-21T14:29:29;100465.91;;;11.60;64.69
44453;BME280;30155;52.164;21.236;2023-03-21T14:34:25;100461.27;;;11.46;64.88
44453;BME280;30155;52.164;21.236;2023-03-21T14:39:26;100461.88;;;11.37;64.74
44453;BME280;30155;52.164;21.236;2023-03-21T14:44:22;100455.70;;;11.26;64.70
44453;BME280;30155;52.164;21.236;2023-03-21T14:49:27;100452.52;;;11.20;64.91
44453;BME280;30155;52.164;21.236;2023-03-21T14:54:21;100451.97;;;11.16;64.35
44453;BME280;30155;52.164;21.236;2023-03-21T14:59:19;100452.44;;;11.28;64.34
44453;BME280;30155;52.164;21.236;2023-03-21T15:04:14;100444.65;;;11.71;64.72
44453;BME280;30155;52.164;21.236;2023-03-21T15:09:14;100442.32;;;12.03;64.31
44453;BME280;30155;52.164;21.236;2023-03-21T15:14:11;100443.55;;;12.07;63.66
44453;BME280;30155;52.164;21.236;2023-03-21T15:19:06;100439.33;;;11.79;63.59
44453;BME280;30155;52.164;21.236;2023-03-21T15:24:50;100442.07;;;11.34;63.66
44453;BME280;30155;52.164;21.236;2023-03-21T15:29:23;100443.79;;;10.98;64.55
44453;BME280;30155;52.164;21.236;2023-03-21T15:34:22;100438.63;;;10.87;65.13
44453;BME280;30155;52.164;21.236;2023-03-21T15:39:19;100436.46;;;10.77;64.88
44453;BME280;30155;52.164;21.236;2023-03-21T15:44:13;100439.77;;;10.50;65.49
44453;BME280;30155;52.164;21.236;2023-03-21T15:54:10;100440.32;;;9.93;66.07
44453;BME280;30155;52.164;21.236;2023-03-21T15:59:11;100441.91;;;9.73;66.44
44453;BME280;30155;52.164;21.236;2023-03-21T16:04:09;100446.17;;;9.58;66.62
44453;BME280;30155;52.164;21.236;2023-03-21T16:09:11;100445.02;;;9.42;66.80
44453;BME280;30155;52.164;21.236;2023-03-21T16:14:04;100446.39;;;9.21;67.31
44453;BME280;30155;52.164;21.236;2023-03-21T16:18:58;100453.13;;;9.02;67.36
44453;BME280;30155;52.164;21.236;2023-03-21T16:23:53;100458.71;;;8.78;67.54
44453;BME280;30155;52.164;21.236;2023-03-21T16:28:47;100454.16;;;8.59;68.17
44453;BME280;30155;52.164;21.236;2023-03-21T16:33:40;100454.59;;;8.39;68.70
44453;BME280;30155;52.164;21.236;2023-03-21T16:38:33;100454.97;;;8.18;68.78
44453;BME280;30155;52.164;21.236;2023-03-21T16:43:26;100455.04;;;7.97;68.77
44453;BME280;30155;52.164;21.236;2023-03-21T16:48:18;100459.91;;;7.78;69.31
44453;BME280;30155;52.164;21.236;2023-03-21T16:53:11;100460.64;;;7.57;69.49
44453;BME280;30155;52.164;21.236;2023-03-21T16:58:05;100464.67;;;7.40;69.66
44453;BME280;30155;52.164;21.236;2023-03-21T17:03:11;100469.02;;;7.22;69.92
44453;BME280;30155;52.164;21.236;2023-03-21T17:08:04;100469.92;;;7.04;70.15
44453;BME280;30155;52.164;21.236;2023-03-21T17:12:58;100474.08;;;6.86;70.20
44453;BME280;30155;52.164;21.236;2023-03-21T17:17:51;100479.58;;;6.67;70.42
44453;BME280;30155;52.164;21.236;2023-03-21T17:22:47;100480.42;;;6.49;70.26
44453;BME280;30155;52.164;21.236;2023-03-21T17:27:41;100487.42;;;6.29;70.27
44453;BME280;30155;52.164;21.236;2023-03-21T17:32:34;100494.02;;;6.14;70.54
44453;BME280;30155;52.164;21.236;2023-03-21T17:37:27;100497.10;;;5.98;70.44
44453;BME280;30155;52.164;21.236;2023-03-21T17:42:20;100502.77;;;5.83;70.39
44453;BME280;30155;52.164;21.236;2023-03-21T17:47:13;100501.40;;;5.72;71.05
44453;BME280;30155;52.164;21.236;2023-03-21T17:52:06;100517.86;;;5.61;71.38
44453;BME280;30155;52.164;21.236;2023-03-21T17:56:59;100514.27;;;5.51;71.49
44453;BME280;30155;52.164;21.236;2023-03-21T18:01:52;100518.56;;;5.41;71.64
44453;BME280;30155;52.164;21.236;2023-03-21T18:06:45;100525.70;;;5.28;71.62
44453;BME280;30155;52.164;21.236;2023-03-21T18:11:38;100533.80;;;5.20;71.90
44453;BME280;30155;52.164;21.236;2023-03-21T18:16:32;100546.26;;;5.12;71.92
44453;BME280;30155;52.164;21.236;2023-03-21T18:21:25;100549.97;;;5.01;72.12
44453;BME280;30155;52.164;21.236;2023-03-21T18:26:23;100552.94;;;4.88;71.67
44453;BME280;30155;52.164;21.236;2023-03-21T18:31:18;100549.75;;;4.76;71.78
44453;BME280;30155;52.164;21.236;2023-03-21T18:36:15;100551.16;;;4.64;71.84
44453;BME280;30155;52.164;21.236;2023-03-21T18:41:16;100553.62;;;4.52;72.02
44453;BME280;30155;52.164;21.236;2023-03-21T18:46:10;100552.38;;;4.42;72.14
44453;BME280;30155;52.164;21.236;2023-03-21T18:51:03;100553.01;;;4.32;72.24
44453;BME280;30155;52.164;21.236;2023-03-21T18:55:56;100553.31;;;4.22;71.95
44453;BME280;30155;52.164;21.236;2023-03-21T19:00:49;100556.95;;;4.10;71.99
44453;BME280;30155;52.164;21.236;2023-03-21T19:05:44;100560.77;;;3.99;72.42
44453;BME280;30155;52.164;21.236;2023-03-21T19:10:37;100561.52;;;3.88;72.43
44453;BME280;30155;52.164;21.236;2023-03-21T19:15:30;100562.64;;;3.77;72.45
44453;BME280;30155;52.164;21.236;2023-03-21T19:20:23;100556.52;;;3.70;72.54
44453;BME280;30155;52.164;21.236;2023-03-21T19:25:16;100549.41;;;3.64;72.37
44453;BME280;30155;52.164;21.236;2023-03-21T19:30:11;100551.34;;;3.57;72.54
44453;BME280;30155;52.164;21.236;2023-03-21T19:35:06;100555.77;;;3.45;72.53
44453;BME280;30155;52.164;21.236;2023-03-21T19:39:59;100557.31;;;3.40;72.92
44453;BME280;30155;52.164;21.236;2023-03-21T19:44:52;100555.59;;;3.32;72.79
44453;BME280;30155;52.164;21.236;2023-03-21T19:49:45;100558.75;;;3.26;72.73
44453;BME280;30155;52.164;21.236;2023-03-21T19:54:58;100563.09;;;3.16;72.54
44453;BME280;30155;52.164;21.236;2023-03-21T19:59:51;100564.08;;;3.08;72.57
44453;BME280;30155;52.164;21.236;2023-03-21T20:04:45;100566.89;;;2.97;72.53
44453;BME280;30155;52.164;21.236;2023-03-21T20:09:38;100570.38;;;2.91;72.98
44453;BME280;30155;52.164;21.236;2023-03-21T20:14:43;100578.34;;;2.82;72.65
44453;BME280;30155;52.164;21.236;2023-03-21T20:19:39;100581.34;;;2.73;72.57
44453;BME280;30155;52.164;21.236;2023-03-21T20:24:32;100585.02;;;2.63;72.89
44453;BME280;30155;52.164;21.236;2023-03-21T20:29:26;100587.05;;;2.55;73.03
44453;BME280;30155;52.164;21.236;2023-03-21T20:34:40;100588.95;;;2.49;72.66
44453;BME280;30155;52.164;21.236;2023-03-21T20:39:35;100590.52;;;2.42;72.78
44453;BME280;30155;52.164;21.236;2023-03-21T20:44:28;100596.98;;;2.34;72.84
44453;BME280;30155;52.164;21.236;2023-03-21T20:49:41;100605.80;;;2.25;72.98
44453;BME280;30155;52.164;21.236;2023-03-21T20:54:34;100598.47;;;2.19;73.01
44453;BME280;30155;52.164;21.236;2023-03-21T20:59:27;100598.20;;;2.13;73.24
44453;BME280;30155;52.164;21.236;2023-03-21T21:04:20;100593.85;;;2.05;73.04
44453;BME280;30155;52.164;21.236;2023-03-21T21:09:33;100589.95;;;1.99;73.06
44453;BME280;30155;52.164;21.236;2023-03-21T21:14:26;100589.20;;;1.94;73.42
44453;BME280;30155;52.164;21.236;2023-03-21T21:19:20;100591.52;;;1.89;73.32
44453;BME280;30155;52.164;21.236;2023-03-21T21:24:13;100581.45;;;1.89;73.37
44453;BME280;30155;52.164;21.236;2023-03-21T21:29:06;100577.77;;;1.90;73.29
44453;BME280;30155;52.164;21.236;2023-03-21T21:33:59;100574.15;;;1.90;73.28
44453;BME280;30155;52.164;21.236;2023-03-21T21:38:53;100573.96;;;1.79;72.94
44453;BME280;30155;52.164;21.236;2023-03-21T21:43:47;100574.38;;;1.67;72.95
44453;BME280;30155;52.164;21.236;2023-03-21T21:48:40;100578.73;;;1.59;73.14
44453;BME280;30155;52.164;21.236;2023-03-21T21:53:33;100572.10;;;1.52;73.46
44453;BME280;30155;52.164;21.236;2023-03-21T21:58:27;100570.15;;;1.47;73.17
44453;BME280;30155;52.164;21.236;2023-03-21T22:03:24;100572.54;;;1.41;73.27
44453;BME280;30155;52.164;21.236;2023-03-21T22:08:18;100576.09;;;1.34;73.59
44453;BME280;30155;52.164;21.236;2023-03-21T22:13:14;100573.40;;;1.31;73.56
44453;BME280;30155;52.164;21.236;2023-03-21T22:18:07;100579.46;;;1.26;73.45
44453;BME280;30155;52.164;21.236;2023-03-21T22:23:01;100581.90;;;1.17;73.17
44453;BME280;30155;52.164;21.236;2023-03-21T22:27:54;100583.23;;;1.10;73.53
44453;BME280;30155;52.164;21.236;2023-03-21T22:32:48;100582.72;;;1.07;73.31
44453;BME280;30155;52.164;21.236;2023-03-21T22:37:56;100581.08;;;1.01;73.47
44453;BME280;30155;52.164;21.236;2023-03-21T22:42:49;100575.80;;;0.96;73.65
44453;BME280;30155;52.164;21.236;2023-03-21T22:47:42;100578.23;;;0.90;73.83
44453;BME280;30155;52.164;21.236;2023-03-21T22:52:35;100580.94;;;0.83;73.57
44453;BME280;30155;52.164;21.236;2023-03-21T22:57:28;100585.69;;;0.79;73.85
44453;BME280;30155;52.164;21.236;2023-03-21T23:02:21;100583.59;;;0.75;73.76
44453;BME280;30155;52.164;21.236;2023-03-21T23:07:14;100583.05;;;0.71;73.89
44453;BME280;30155;52.164;21.236;2023-03-21T23:12:07;100582.60;;;0.66;73.98
44453;BME280;30155;52.164;21.236;2023-03-21T23:17:00;100580.65;;;0.65;74.09
44453;BME280;30155;52.164;21.236;2023-03-21T23:21:53;100576.42;;;0.65;74.09
44453;BME280;30155;52.164;21.236;2023-03-21T23:26:47;100573.16;;;0.62;74.20
44453;BME280;30155;52.164;21.236;2023-03-21T23:31:40;100571.31;;;0.62;74.48
44453;BME280;30155;52.164;21.236;2023-03-21T23:36:32;100568.83;;;0.61;74.00
44453;BME280;30155;52.164;21.236;2023-03-21T23:41:25;100565.12;;;0.55;74.14
44453;BME280;30155;52.164;21.236;2023-03-21T23:46:19;100556.93;;;0.55;74.37
44453;BME280;30155;52.164;21.236;2023-03-21T23:51:14;100558.35;;;0.59;74.57
44453;BME280;30155;52.164;21.236;2023-03-21T23:56:16;100557.48;;;0.59;74.47
